Oudenburg, Belgium
Current Conditions -  °F | °C
As of 11:20 AM on Sunday 21 Dec 2014 (Local Time) from EBOS Reporting Station
Broken Clouds Broken Clouds  
Wind Chill: 39°   Ceiling: 3000
Heat Index: 45°   Visibility: 6mi
Dew Point: 43°   Wind: 12mph
Humidity: 93%   Direction: 220°SW
Pressure: 30.39"   Gusts: NA
Location:  51.18°N, 3°E
Report Text: EBOS 211020Z 22010KT 9999 FEW012 BKN030 07/06 Q1029 NOSIG
Loading
Personal Weather Stations






























Interactive Weather Map New forecast layout! Learn more

10-Day Weather Forecast

Advertisements
Track Severe Weather on mobile